Time;durP1;ratioP1;P1;durP2;ratioP2;P2;SDS_P1;SDS_P2;PMS_P1;PMS_P2;Temp;Humidity;BMP_temperature;BMP_pressure;BME280_temperature;BME280_humidity;BME280_pressure;Samples;Min_cycle;Max_cycle;Signal;HPM_P1;HPM_P2
2023/01/09 00:00:24;;;;;;;3.67;1.90;;;9.30;99.90;;;;;;5093925;28;20393;-71
2023/01/09 00:02:50;;;;;;;3.08;1.92;;;9.30;99.90;;;;;;5095254;28;20035;-75
2023/01/09 00:05:17;;;;;;;3.00;1.42;;;9.30;99.90;;;;;;5094224;28;20039;-71
2023/01/09 00:07:43;;;;;;;2.85;1.60;;;9.30;99.90;;;;;;5094353;28;20465;-72
2023/01/09 00:10:10;;;;;;;3.20;1.30;;;9.30;99.90;;;;;;5093449;28;20030;-72
2023/01/09 00:12:36;;;;;;;1.75;1.20;;;9.30;99.90;;;;;;5093931;28;20030;-72
2023/01/09 00:15:03;;;;;;;1.70;0.90;;;9.20;99.90;;;;;;5093284;28;20115;-72
2023/01/09 00:17:29;;;;;;;2.05;1.00;;;9.20;99.90;;;;;;5093147;28;20048;-72
2023/01/09 00:19:54;;;;;;;1.48;0.88;;;9.20;99.90;;;;;;5093684;28;20107;-73
2023/01/09 00:22:20;;;;;;;2.25;0.88;;;9.20;99.90;;;;;;5093945;28;20425;-72
2023/01/09 00:24:45;;;;;;;0.73;0.60;;;9.20;99.90;;;;;;5093320;28;20024;-73
2023/01/09 00:27:13;;;;;;;1.23;0.60;;;9.20;99.90;;;;;;5093006;28;20036;-72
2023/01/09 00:29:40;;;;;;;0.30;0.30;;;9.20;99.90;;;;;;5095348;28;20055;-72
2023/01/09 00:32:08;;;;;;;0.50;0.22;;;9.20;99.90;;;;;;5094663;28;20523;-72
2023/01/09 00:34:36;;;;;;;2.65;0.40;;;9.20;99.90;;;;;;5096589;28;20031;-72
2023/01/09 00:37:02;;;;;;;0.30;0.30;;;9.20;99.90;;;;;;5094581;28;20040;-73
2023/01/09 00:39:28;;;;;;;2.50;0.30;;;9.20;99.90;;;;;;5095720;28;20024;-72
2023/01/09 00:41:54;;;;;;;0.40;0.20;;;9.20;99.90;;;;;;5095329;28;20097;-73
2023/01/09 00:44:43;;;;;;;2.17;0.40;;;9.20;99.90;;;;;;5095665;28;20028;-72
2023/01/09 00:47:20;;;;;;;0.45;0.35;;;9.20;99.90;;;;;;5096447;28;20031;-72
2023/01/09 00:49:46;;;;;;;0.20;0.20;;;9.20;99.90;;;;;;5097291;28;20434;-72
2023/01/09 00:52:13;;;;;;;0.20;0.20;;;9.20;99.90;;;;;;5095317;28;20107;-72
2023/01/09 00:54:41;;;;;;;0.38;0.20;;;9.20;99.90;;;;;;5097136;28;20058;-72
2023/01/09 00:57:07;;;;;;;0.20;0.20;;;9.20;99.90;;;;;;5092146;28;20032;-72
2023/01/09 00:59:33;;;;;;;0.22;0.20;;;9.20;99.90;;;;;;5094331;28;20063;-73
2023/01/09 01:01:58;;;;;;;1.20;0.20;;;9.20;99.90;;;;;;5092586;28;20465;-72
2023/01/09 01:09:52;;;;;;;2.40;0.30;;;9.30;99.90;;;;;;5093901;28;20054;-76
2023/01/09 01:12:18;;;;;;;0.20;0.20;;;9.30;99.90;;;;;;5093238;28;20024;-72
2023/01/09 01:14:43;;;;;;;1.00;0.20;;;9.30;99.90;;;;;;5094841;28;20030;-72
2023/01/09 01:17:09;;;;;;;0.17;0.17;;;9.30;99.90;;;;;;5101137;28;20044;-73
2023/01/09 01:19:35;;;;;;;0.28;0.20;;;9.30;99.90;;;;;;5095697;28;20024;-72
2023/01/09 01:22:01;;;;;;;6.30;0.20;;;9.30;99.90;;;;;;5094984;28;20426;-73
2023/01/09 01:24:26;;;;;;;0.65;0.20;;;9.30;99.90;;;;;;5113556;28;20461;-73
2023/01/09 01:26:52;;;;;;;0.10;0.10;;;9.30;99.90;;;;;;5113295;28;20169;-74
2023/01/09 01:29:17;;;;;;;0.40;0.40;;;9.30;99.90;;;;;;5095277;28;20042;-72
2023/01/09 01:31:43;;;;;;;0.68;0.35;;;9.30;99.90;;;;;;5095697;28;20114;-73
2023/01/09 01:34:09;;;;;;;0.20;0.20;;;9.20;99.90;;;;;;5094494;28;20027;-73
2023/01/09 01:36:34;;;;;;;0.30;0.20;;;9.30;99.90;;;;;;5095324;28;20028;-72
2023/01/09 01:39:00;;;;;;;1.02;0.20;;;9.30;99.90;;;;;;5094643;28;20030;-73
2023/01/09 01:41:28;;;;;;;0.25;0.20;;;9.30;99.90;;;;;;5095055;28;20496;-73
2023/01/09 01:44:01;;;;;;;0.30;0.10;;;9.30;99.90;;;;;;5094838;28;20024;-76
2023/01/09 01:46:28;;;;;;;0.30;0.20;;;9.30;99.90;;;;;;5095477;28;20036;-72
2023/01/09 01:49:11;;;;;;;0.47;0.30;;;9.20;99.90;;;;;;5113158;28;20020;-76
2023/01/09 01:51:43;;;;;;;1.77;0.20;;;9.30;99.90;;;;;;5095307;28;20028;-72
2023/01/09 01:54:12;;;;;;;;;;;9.20;99.90;;;;;;5112945;28;20055;-73
2023/01/09 01:56:43;;;;;;;0.20;0.20;;;9.20;99.90;;;;;;5095001;28;20367;-72
2023/01/09 01:59:12;;;;;;;0.60;0.30;;;9.20;99.90;;;;;;5094729;28;20024;-72
2023/01/09 02:01:41;;;;;;;0.52;0.35;;;9.20;99.90;;;;;;5113323;28;20028;-72
2023/01/09 02:04:07;;;;;;;0.30;0.30;;;9.20;99.90;;;;;;5094482;28;20115;-73
2023/01/09 02:06:34;;;;;;;0.65;0.28;;;9.20;99.90;;;;;;5113065;28;20039;-72
2023/01/09 02:09:03;;;;;;;0.22;0.20;;;9.20;99.90;;;;;;5094476;28;20023;-73
2023/01/09 02:11:29;;;;;;;0.30;0.20;;;9.20;99.90;;;;;;5113056;28;20023;-72
2023/01/09 02:13:55;;;;;;;0.30;0.20;;;9.20;99.90;;;;;;5094515;28;20072;-77
2023/01/09 02:16:35;;;;;;;0.20;0.20;;;9.20;99.90;;;;;;5094128;28;20373;-73
2023/01/09 02:19:34;;;;;;;0.32;0.28;;;9.20;99.90;;;;;;5112154;28;20035;-73
2023/01/09 02:22:24;;;;;;;0.28;0.28;;;9.20;99.90;;;;;;5111952;28;20027;-73
2023/01/09 02:25:14;;;;;;;0.73;0.22;;;9.20;99.90;;;;;;5112694;28;20103;-73
2023/01/09 02:28:17;;;;;;;0.90;0.30;;;9.20;99.90;;;;;;5094786;28;20140;-73
2023/01/09 02:30:47;;;;;;;0.55;0.40;;;9.20;99.90;;;;;;5094318;28;20358;-72
2023/01/09 02:33:25;;;;;;;0.88;0.50;;;9.30;99.90;;;;;;5112166;28;20425;-73
2023/01/09 02:36:08;;;;;;;0.88;0.40;;;9.30;99.90;;;;;;5112537;28;20457;-72
2023/01/09 02:39:09;;;;;;;0.40;0.40;;;9.30;99.90;;;;;;5094446;28;20119;-74
2023/01/09 02:41:50;;;;;;;0.95;0.43;;;9.30;99.90;;;;;;5094380;28;20024;-72
2023/01/09 02:44:19;;;;;;;0.30;0.30;;;9.30;99.90;;;;;;5111978;28;20047;-72
2023/01/09 02:46:45;;;;;;;0.70;0.43;;;9.30;99.90;;;;;;5094242;28;20480;-73
2023/01/09 02:49:14;;;;;;;1.08;0.50;;;9.30;99.90;;;;;;5093788;28;20073;-73
2023/01/09 02:51:51;;;;;;;0.52;0.43;;;9.30;99.90;;;;;;5112602;28;20050;-73
2023/01/09 02:54:25;;;;;;;0.60;0.40;;;9.30;99.90;;;;;;5093855;28;20031;-73
2023/01/09 02:57:10;;;;;;;0.52;0.43;;;9.30;99.90;;;;;;5112644;28;20077;-72
2023/01/09 02:59:58;;;;;;;0.50;0.40;;;9.30;99.90;;;;;;5094312;28;20036;-72
2023/01/09 03:02:36;;;;;;;1.00;0.40;;;9.20;99.90;;;;;;5112655;28;20055;-73
2023/01/09 03:05:16;;;;;;;0.32;0.32;;;9.10;99.90;;;;;;5093565;28;20034;-76
2023/01/09 03:07:54;;;;;;;0.43;0.40;;;9.00;99.90;;;;;;5098194;28;20069;-73
2023/01/09 03:10:45;;;;;;;0.40;0.40;;;8.90;99.90;;;;;;5097236;28;20613;-72
2023/01/09 03:13:15;;;;;;;0.20;0.20;;;8.80;99.90;;;;;;5101086;28;20059;-72
2023/01/09 03:15:44;;;;;;;0.10;0.10;;;8.70;99.90;;;;;;5097959;28;20023;-72
2023/01/09 03:18:12;;;;;;;0.17;0.10;;;8.60;99.90;;;;;;5097014;28;20124;-73
2023/01/09 03:20:39;;;;;;;0.25;0.25;;;8.60;99.90;;;;;;5115967;28;20019;-72
2023/01/09 03:23:06;;;;;;;1.42;0.20;;;8.50;99.90;;;;;;5097453;28;20024;-73
2023/01/09 03:25:33;;;;;;;0.82;0.20;;;8.50;99.90;;;;;;5097995;28;20076;-72
2023/01/09 03:28:01;;;;;;;1.35;0.25;;;8.40;99.90;;;;;;5097636;28;20099;-74
2023/01/09 03:30:28;;;;;;;0.55;0.20;;;8.30;99.90;;;;;;5115888;28;20035;-73
2023/01/09 03:32:54;;;;;;;1.70;0.38;;;8.30;99.90;;;;;;5097771;28;20051;-72
2023/01/09 03:35:20;;;;;;;2.30;0.10;;;8.30;99.90;;;;;;5097178;28;20054;-72
2023/01/09 03:37:46;;;;;;;0.63;0.20;;;8.20;99.90;;;;;;5097795;28;20447;-73
2023/01/09 03:40:11;;;;;;;0.15;0.13;;;8.20;99.90;;;;;;5097197;28;20024;-73
2023/01/09 03:42:37;;;;;;;0.40;0.13;;;8.10;99.90;;;;;;5097324;28;20126;-72
2023/01/09 03:45:03;;;;;;;0.60;0.20;;;8.10;99.90;;;;;;5115711;28;20098;-76
2023/01/09 03:47:29;;;;;;;1.02;0.10;;;8.10;99.90;;;;;;5097359;28;20031;-72
2023/01/09 03:49:54;;;;;;;0.25;0.20;;;8.10;99.90;;;;;;5097573;28;20023;-73
2023/01/09 03:52:20;;;;;;;0.10;0.10;;;8.00;99.90;;;;;;5115139;28;20115;-72
2023/01/09 03:54:46;;;;;;;1.00;0.20;;;8.00;99.90;;;;;;5115599;28;20023;-73
2023/01/09 03:57:11;;;;;;;0.45;0.10;;;8.00;99.90;;;;;;5096618;28;20039;-72
2023/01/09 03:59:37;;;;;;;0.10;0.10;;;8.00;99.90;;;;;;5097231;28;20028;-73
2023/01/09 04:02:02;;;;;;;0.10;0.10;;;8.00;99.90;;;;;;5096959;28;20122;-74
2023/01/09 04:04:28;;;;;;;2.05;0.20;;;8.00;99.90;;;;;;5115217;28;20030;-73
2023/01/09 04:06:53;;;;;;;1.25;0.25;;;8.00;99.90;;;;;;5115004;28;20035;-73
2023/01/09 04:09:19;;;;;;;0.22;0.20;;;8.00;99.90;;;;;;5114862;28;20030;-73
2023/01/09 04:11:45;;;;;;;2.58;0.30;;;7.90;99.90;;;;;;5097130;28;20043;-73
2023/01/09 04:14:10;;;;;;;0.13;0.13;;;7.90;99.90;;;;;;5114835;28;20058;-73
2023/01/09 04:16:36;;;;;;;1.05;0.13;;;7.90;99.90;;;;;;5096532;28;20032;-73
2023/01/09 04:19:01;;;;;;;0.38;0.20;;;7.80;99.90;;;;;;5096945;28;20488;-73
2023/01/09 04:21:27;;;;;;;0.47;0.20;;;7.80;99.90;;;;;;5095731;28;20034;-73
2023/01/09 04:23:52;;;;;;;0.80;0.20;;;7.70;99.90;;;;;;5096943;28;20019;-72
2023/01/09 04:26:18;;;;;;;1.00;0.20;;;7.70;99.90;;;;;;5096030;28;20354;-73
2023/01/09 04:28:43;;;;;;;2.75;0.20;;;7.70;99.90;;;;;;5096514;28;20030;-73
2023/01/09 04:31:09;;;;;;;0.20;0.20;;;7.70;99.90;;;;;;5096230;28;20027;-73
2023/01/09 04:33:35;;;;;;;1.65;0.30;;;7.60;99.90;;;;;;5114537;28;20031;-72
2023/01/09 04:36:00;;;;;;;0.95;0.40;;;7.60;99.90;;;;;;5096372;28;20056;-73
2023/01/09 04:38:26;;;;;;;0.82;0.25;;;7.60;99.90;;;;;;5114019;28;20020;-73
2023/01/09 04:40:52;;;;;;;0.22;0.20;;;7.60;99.90;;;;;;5114785;28;20068;-72
2023/01/09 04:43:18;;;;;;;0.22;0.20;;;7.50;99.90;;;;;;5114078;28;20144;-73
2023/01/09 04:45:44;;;;;;;0.25;0.20;;;7.50;99.90;;;;;;5114590;28;20377;-74
2023/01/09 04:48:09;;;;;;;0.47;0.20;;;7.60;99.90;;;;;;5095752;28;20036;-73
2023/01/09 04:50:35;;;;;;;0.95;0.20;;;7.50;99.90;;;;;;5114574;28;20350;-73
2023/01/09 04:53:01;;;;;;;0.73;0.30;;;7.50;99.90;;;;;;5114543;28;20020;-73
2023/01/09 04:55:26;;;;;;;1.02;0.30;;;7.50;99.90;;;;;;5113893;28;20032;-72
2023/01/09 04:57:52;;;;;;;0.30;0.30;;;7.50;99.90;;;;;;5096148;28;20032;-73
2023/01/09 05:00:18;;;;;;;3.22;0.30;;;7.50;99.90;;;;;;5095638;28;20024;-73
2023/01/09 05:02:43;;;;;;;0.20;0.20;;;7.60;99.90;;;;;;5088847;28;20037;-73
2023/01/09 05:05:10;;;;;;;0.30;0.30;;;7.60;99.90;;;;;;5113131;28;20035;-74
2023/01/09 05:07:35;;;;;;;1.05;0.32;;;7.50;99.90;;;;;;5095289;28;20482;-73
2023/01/09 05:10:02;;;;;;;1.00;0.20;;;7.50;99.90;;;;;;5113526;28;20028;-73
2023/01/09 05:12:28;;;;;;;0.13;0.13;;;7.50;99.90;;;;;;5109806;28;20068;-73
2023/01/09 05:14:53;;;;;;;1.30;0.35;;;7.50;99.90;;;;;;5094187;28;20027;-73
2023/01/09 05:17:19;;;;;;;1.00;0.20;;;7.40;99.90;;;;;;5098084;28;20047;-73
2023/01/09 05:19:44;;;;;;;3.13;0.30;;;7.40;99.90;;;;;;5101440;28;20023;-73
2023/01/09 05:22:13;;;;;;;2.15;0.32;;;7.40;99.90;;;;;;5112854;28;20421;-73
2023/01/09 05:24:39;;;;;;;0.20;0.20;;;7.40;99.90;;;;;;5110495;28;20096;-73
2023/01/09 05:27:04;;;;;;;1.40;0.30;;;7.30;99.90;;;;;;5099877;28;20494;-77
2023/01/09 05:29:30;;;;;;;2.30;0.40;;;7.40;99.90;;;;;;5102562;28;20076;-72
2023/01/09 05:31:56;;;;;;;1.75;0.30;;;7.30;99.90;;;;;;5102452;28;20031;-72
2023/01/09 05:34:22;;;;;;;0.45;0.30;;;7.30;99.90;;;;;;5110096;28;20032;-72
2023/01/09 05:36:47;;;;;;;0.50;0.20;;;7.30;99.90;;;;;;5113361;28;20105;-73
2023/01/09 05:39:13;;;;;;;3.03;0.30;;;7.30;99.90;;;;;;5104778;28;20076;-73
2023/01/09 05:41:39;;;;;;;1.95;0.30;;;7.30;99.90;;;;;;5105061;28;20023;-73
2023/01/09 05:44:05;;;;;;;0.43;0.30;;;7.20;99.90;;;;;;5097901;28;20024;-77
2023/01/09 05:46:31;;;;;;;1.48;0.38;;;7.20;99.90;;;;;;5111253;28;20395;-73
2023/01/09 05:48:57;;;;;;;2.17;0.67;;;7.20;99.90;;;;;;5113087;28;20028;-72
2023/01/09 05:51:22;;;;;;;1.43;0.60;;;7.30;99.90;;;;;;5103088;28;20038;-73
2023/01/09 05:53:48;;;;;;;2.88;0.40;;;7.30;99.90;;;;;;5106417;28;20107;-73
2023/01/09 05:56:14;;;;;;;1.30;0.35;;;7.30;99.90;;;;;;5112473;28;20118;-73
2023/01/09 05:58:40;;;;;;;0.55;0.30;;;7.30;99.90;;;;;;5096363;28;20028;-73
2023/01/09 06:01:06;;;;;;;0.55;0.30;;;7.40;99.90;;;;;;5102307;28;20518;-74
2023/01/09 06:03:32;;;;;;;1.20;0.30;;;7.40;99.90;;;;;;5103758;28;20019;-72
2023/01/09 06:05:57;;;;;;;0.95;0.68;;;7.40;99.90;;;;;;5098763;28;20035;-73
2023/01/09 06:08:23;;;;;;;1.88;0.30;;;7.40;99.90;;;;;;5112290;28;20024;-72
2023/01/09 06:10:49;;;;;;;3.72;0.73;;;7.40;99.90;;;;;;5097883;28;20184;-73
2023/01/09 06:13:14;;;;;;;1.90;0.38;;;7.40;99.90;;;;;;5112287;28;20054;-73
2023/01/09 06:15:40;;;;;;;3.30;0.30;;;7.50;99.90;;;;;;5104668;28;20479;-73
2023/01/09 06:18:06;;;;;;;2.87;0.60;;;7.50;99.90;;;;;;5093085;28;20048;-73
2023/01/09 06:20:32;;;;;;;0.30;0.20;;;7.50;99.90;;;;;;5092105;28;20035;-73
2023/01/09 06:22:58;;;;;;;1.08;0.35;;;7.50;99.90;;;;;;5090645;28;20443;-73
2023/01/09 06:25:23;;;;;;;4.30;0.35;;;7.50;99.90;;;;;;5090644;28;20115;-73
2023/01/09 06:27:50;;;;;;;0.65;0.30;;;7.50;99.90;;;;;;5090796;28;20048;-73
2023/01/09 06:30:17;;;;;;;0.57;0.30;;;7.50;99.90;;;;;;5091732;28;20485;-72
2023/01/09 06:32:43;;;;;;;1.00;0.20;;;7.50;99.90;;;;;;5080407;28;20039;-73
2023/01/09 06:35:09;;;;;;;2.97;0.37;;;7.50;99.90;;;;;;5090431;28;20111;-73
2023/01/09 06:37:34;;;;;;;0.52;0.38;;;7.50;99.90;;;;;;5091038;28;20534;-72
2023/01/09 06:40:00;;;;;;;2.30;0.30;;;7.50;99.90;;;;;;5090858;28;20028;-73
2023/01/09 06:42:26;;;;;;;1.60;0.50;;;7.50;99.90;;;;;;5093821;28;20020;-72
2023/01/09 06:44:51;;;;;;;0.77;0.30;;;7.50;99.90;;;;;;5096162;28;20024;-73
2023/01/09 06:47:17;;;;;;;1.80;0.82;;;7.50;99.90;;;;;;5094465;28;20040;-73
2023/01/09 06:49:42;;;;;;;1.33;0.50;;;7.50;99.90;;;;;;5096163;28;20461;-73
2023/01/09 06:52:08;;;;;;;1.10;0.30;;;7.50;99.90;;;;;;5093793;28;20115;-73
2023/01/09 06:54:33;;;;;;;0.50;0.30;;;7.50;99.90;;;;;;5096349;28;20024;-73
2023/01/09 06:57:00;;;;;;;1.70;0.30;;;7.50;99.90;;;;;;5094473;28;20021;-73
2023/01/09 06:59:26;;;;;;;2.60;0.60;;;7.50;99.90;;;;;;5094193;28;20484;-72
2023/01/09 07:01:51;;;;;;;2.15;0.70;;;7.50;99.90;;;;;;5094369;28;20024;-73
2023/01/09 07:04:17;;;;;;;2.88;0.60;;;7.50;99.90;;;;;;5095389;28;20024;-73
2023/01/09 07:06:46;;;;;;;1.67;0.52;;;7.60;99.90;;;;;;5094457;28;20032;-73
2023/01/09 07:09:12;;;;;;;4.13;0.68;;;7.70;99.90;;;;;;5093865;28;20030;-73
2023/01/09 07:11:39;;;;;;;3.05;0.60;;;7.70;99.90;;;;;;5095560;28;20020;-73
2023/01/09 07:14:05;;;;;;;2.92;0.50;;;7.70;99.90;;;;;;5095804;28;20563;-76
2023/01/09 07:16:32;;;;;;;2.67;0.50;;;7.70;99.90;;;;;;5095581;28;20042;-73
2023/01/09 07:18:58;;;;;;;3.22;0.40;;;7.70;99.90;;;;;;5097407;28;20467;-73
2023/01/09 07:21:23;;;;;;;2.67;0.60;;;7.80;99.90;;;;;;5096997;28;20069;-72
2023/01/09 07:23:49;;;;;;;2.63;0.50;;;7.80;99.90;;;;;;5115869;28;20030;-73
2023/01/09 07:26:15;;;;;;;3.42;0.50;;;7.80;99.90;;;;;;5096900;28;20034;-73
2023/01/09 07:28:40;;;;;;;5.72;0.82;;;7.80;99.90;;;;;;5097355;28;20035;-73
2023/01/09 07:31:06;;;;;;;1.83;0.40;;;7.80;99.90;;;;;;5096372;28;20035;-77
2023/01/09 07:33:33;;;;;;;2.97;0.50;;;7.90;99.90;;;;;;5096558;28;20032;-73
2023/01/09 07:35:58;;;;;;;4.90;0.70;;;7.80;99.90;;;;;;5115280;28;20031;-73
2023/01/09 07:38:24;;;;;;;3.10;0.68;;;7.90;99.90;;;;;;5115197;28;20429;-73
2023/01/09 07:40:50;;;;;;;4.28;0.65;;;7.90;99.90;;;;;;5096760;28;20052;-74
2023/01/09 07:43:15;;;;;;;3.00;0.50;;;7.90;99.90;;;;;;5114517;28;20023;-73
2023/01/09 07:45:41;;;;;;;3.40;0.60;;;7.90;99.90;;;;;;5115600;28;20023;-73
2023/01/09 07:48:06;;;;;;;4.68;0.82;;;7.90;99.90;;;;;;5096781;28;20097;-76
2023/01/09 07:50:32;;;;;;;3.08;0.50;;;8.00;99.90;;;;;;5097197;28;20027;-72
2023/01/09 07:52:58;;;;;;;3.60;0.50;;;8.00;99.90;;;;;;5114996;28;20357;-73
2023/01/09 07:55:23;;;;;;;3.15;0.40;;;8.00;99.90;;;;;;5115284;28;20111;-73
2023/01/09 07:57:50;;;;;;;2.15;0.60;;;8.00;99.90;;;;;;5097194;28;20074;-73
2023/01/09 08:00:17;;;;;;;2.97;0.68;;;8.00;99.90;;;;;;5114603;28;20034;-73
2023/01/09 08:02:43;;;;;;;1.05;0.52;;;8.00;99.90;;;;;;5079634;28;20060;-73
2023/01/09 08:05:13;;;;;;;1.10;0.50;;;8.00;99.90;;;;;;5103318;28;20039;-77
2023/01/09 08:07:39;;;;;;;2.70;1.05;;;8.00;99.90;;;;;;5096669;28;20477;-73
2023/01/09 08:10:05;;;;;;;1.27;0.50;;;8.10;99.90;;;;;;5096524;28;20038;-75
2023/01/09 08:12:31;;;;;;;1.40;0.40;;;8.10;99.90;;;;;;5095862;28;20098;-73
2023/01/09 08:14:56;;;;;;;2.47;0.50;;;8.10;99.90;;;;;;5114700;28;20031;-73
2023/01/09 08:17:22;;;;;;;3.15;0.60;;;8.10;99.90;;;;;;5099281;28;20054;-73
2023/01/09 08:19:47;;;;;;;1.60;0.50;;;8.10;99.90;;;;;;5114289;28;20074;-73
2023/01/09 08:22:13;;;;;;;3.33;0.63;;;8.10;99.90;;;;;;5110857;28;20024;-73
2023/01/09 08:24:39;;;;;;;3.30;0.40;;;8.10;99.90;;;;;;5115059;28;20023;-72
2023/01/09 08:27:04;;;;;;;0.88;0.20;;;8.20;99.90;;;;;;5114392;28;20088;-73
2023/01/09 08:29:30;;;;;;;1.67;0.52;;;8.20;99.90;;;;;;5113450;28;20039;-73
2023/01/09 08:31:55;;;;;;;1.92;0.40;;;8.20;99.90;;;;;;5103394;28;20024;-73
2023/01/09 08:34:21;;;;;;;0.55;0.40;;;8.20;99.90;;;;;;5110813;28;20024;-72
2023/01/09 08:36:47;;;;;;;2.85;0.40;;;8.30;99.90;;;;;;5099238;28;20031;-73
2023/01/09 08:39:13;;;;;;;3.00;0.50;;;8.30;99.90;;;;;;5114267;28;20031;-73
2023/01/09 08:47:07;;;;;;;1.77;0.80;;;8.30;99.90;;;;;;5113215;28;20051;-77
2023/01/09 08:49:34;;;;;;;1.75;0.43;;;8.30;99.90;;;;;;5113694;28;20024;-73
2023/01/09 08:52:00;;;;;;;1.13;0.50;;;8.30;99.90;;;;;;5108752;28;20493;-73
2023/01/09 08:54:26;;;;;;;3.45;0.60;;;8.30;99.90;;;;;;5095028;28;20118;-73
2023/01/09 08:56:52;;;;;;;1.17;0.40;;;8.30;99.90;;;;;;5107605;28;20031;-74
2023/01/09 08:59:17;;;;;;;1.70;0.40;;;8.40;99.90;;;;;;5105212;28;20035;-72
2023/01/09 09:01:43;;;;;;;2.72;0.40;;;8.30;99.90;;;;;;5101027;28;20107;-74
2023/01/09 09:04:08;;;;;;;1.63;0.45;;;8.40;99.90;;;;;;5094432;28;20023;-77
2023/01/09 09:06:34;;;;;;;4.68;0.90;;;8.50;99.90;;;;;;5112515;28;20019;-73
2023/01/09 09:09:03;;;;;;;2.50;0.65;;;8.50;99.90;;;;;;5113279;28;20365;-73
2023/01/09 09:11:30;;;;;;;2.38;0.32;;;8.60;99.90;;;;;;5103262;28;20119;-73
2023/01/09 09:13:56;;;;;;;0.93;0.20;;;8.60;99.90;;;;;;5100119;28;20024;-73
2023/01/09 09:16:22;;;;;;;1.55;0.40;;;8.50;99.90;;;;;;5095136;28;20082;-72
2023/01/09 09:18:48;;;;;;;1.60;0.30;;;8.50;99.90;;;;;;5109320;28;20071;-72
2023/01/09 09:21:14;;;;;;;1.65;0.63;;;8.60;99.90;;;;;;5095191;28;20043;-73
2023/01/09 09:23:39;;;;;;;5.38;0.40;;;8.60;99.90;;;;;;5095546;28;20518;-72
2023/01/09 09:26:05;;;;;;;0.50;0.32;;;8.60;99.90;;;;;;5095469;28;20045;-74
2023/01/09 09:28:30;;;;;;;3.20;0.40;;;8.60;99.90;;;;;;5112775;28;20036;-72
2023/01/09 09:30:56;;;;;;;1.92;0.47;;;8.50;99.90;;;;;;5092849;28;20034;-73
2023/01/09 09:33:21;;;;;;;3.28;0.77;;;8.60;99.90;;;;;;5103444;28;20019;-73
2023/01/09 09:35:47;;;;;;;3.17;0.70;;;8.60;99.90;;;;;;5106430;28;20506;-73
2023/01/09 09:38:13;;;;;;;2.10;0.82;;;8.60;99.90;;;;;;5096604;28;20085;-73
2023/01/09 09:44:41;;;;;;;5.03;0.73;;;8.60;99.90;;;;;;5110443;28;20060;-73
2023/01/09 09:47:19;;;;;;;1.75;0.50;;;8.60;99.90;;;;;;5099461;28;20089;-74
2023/01/09 09:50:00;;;;;;;2.90;0.70;;;8.60;99.90;;;;;;5099438;28;20118;-73
2023/01/09 09:52:56;;;;;;;2.25;0.45;;;8.70;99.90;;;;;;5110404;28;20076;-73
2023/01/09 09:55:38;;;;;;;1.35;0.50;;;8.80;99.90;;;;;;5101838;28;20047;-73
2023/01/09 09:58:20;;;;;;;2.45;0.52;;;8.90;99.90;;;;;;5109190;28;20080;-73
2023/01/09 10:00:47;;;;;;;1.23;0.40;;;8.80;99.90;;;;;;5097630;28;20050;-73
2023/01/09 10:03:29;;;;;;;1.08;0.40;;;8.80;99.90;;;;;;5094269;28;20031;-73
2023/01/09 10:05:57;;;;;;;1.25;0.52;;;8.80;99.90;;;;;;5113278;28;20032;-73
2023/01/09 10:08:41;;;;;;;0.80;0.40;;;8.90;99.90;;;;;;5112232;28;20468;-73
2023/01/09 10:11:17;;;;;;;7.50;0.90;;;9.00;99.90;;;;;;5112303;28;20028;-76
2023/01/09 10:16:54;;;;;;;4.28;0.60;;;9.10;99.90;;;;;;5112124;28;20034;-73
2023/01/09 10:19:36;;;;;;;2.38;0.50;;;9.10;99.90;;;;;;5112316;28;20044;-73
2023/01/09 10:22:20;;;;;;;6.68;0.52;;;9.10;99.90;;;;;;5107635;28;20027;-73
2023/01/09 10:25:04;;;;;;;1.52;0.57;;;9.10;99.90;;;;;;5083228;28;20473;-74
2023/01/09 10:27:52;;;;;;;5.43;0.50;;;9.10;99.90;;;;;;5111667;28;20118;-73
2023/01/09 10:30:36;;;;;;;1.73;0.68;;;9.20;99.90;;;;;;5108958;28;20032;-73
2023/01/09 10:33:24;;;;;;;2.72;0.45;;;9.20;99.90;;;;;;5112208;28;20034;-73
2023/01/09 10:36:15;;;;;;;1.85;0.52;;;9.20;99.90;;;;;;5098398;28;20028;-73
2023/01/09 10:38:45;;;;;;;2.38;0.50;;;9.30;99.90;;;;;;5081209;28;20029;-73
2023/01/09 10:41:38;;;;;;;2.83;0.50;;;9.30;99.90;;;;;;5104157;28;20023;-74
2023/01/09 10:44:19;;;;;;;4.75;0.85;;;9.30;99.90;;;;;;5104808;28;20059;-73
2023/01/09 10:46:51;;;;;;;2.60;0.50;;;9.30;99.90;;;;;;5096777;28;20039;-73
2023/01/09 10:49:17;;;;;;;4.40;0.50;;;9.40;99.90;;;;;;5103291;28;20069;-73
2023/01/09 10:51:51;;;;;;;2.40;0.65;;;9.50;99.90;;;;;;5104561;28;20388;-73
2023/01/09 10:54:22;;;;;;;1.70;0.40;;;9.60;99.90;;;;;;5111297;28;20469;-73
2023/01/09 10:57:11;;;;;;;2.20;0.73;;;9.60;99.90;;;;;;5112229;28;20016;-73
2023/01/09 10:59:39;;;;;;;1.85;0.43;;;9.70;99.90;;;;;;5103981;28;20032;-73
2023/01/09 11:02:10;;;;;;;3.00;0.50;;;9.70;99.90;;;;;;5085364;28;20032;-74
2023/01/09 11:04:38;;;;;;;2.83;0.50;;;9.70;99.90;;;;;;5112176;28;20027;-72
2023/01/09 11:07:20;;;;;;;4.28;0.50;;;9.70;99.90;;;;;;5105388;28;20032;-72
2023/01/09 11:10:03;;;;;;;2.72;0.60;;;9.60;99.90;;;;;;5111915;28;20437;-73
2023/01/09 11:12:31;;;;;;;3.85;0.80;;;9.50;99.90;;;;;;5091312;28;20024;-73
2023/01/09 11:15:15;;;;;;;3.90;0.80;;;9.60;99.90;;;;;;5091852;28;20069;-72
2023/01/09 11:17:50;;;;;;;4.30;0.63;;;9.60;99.90;;;;;;5098027;28;20475;-72
2023/01/09 11:20:19;;;;;;;2.45;0.68;;;9.60;99.90;;;;;;5111721;28;20028;-73
2023/01/09 11:22:50;;;;;;;1.95;0.50;;;9.60;99.90;;;;;;5112289;28;20046;-73
2023/01/09 11:25:18;;;;;;;3.28;0.65;;;9.50;99.90;;;;;;5111445;28;20084;-73
2023/01/09 11:28:02;;;;;;;2.53;0.50;;;9.50;99.90;;;;;;5099204;28;20043;-72
2023/01/09 11:30:29;;;;;;;1.63;0.45;;;9.40;99.90;;;;;;5080538;28;20052;-73
2023/01/09 11:32:56;;;;;;;2.15;0.60;;;9.20;99.90;;;;;;5079919;28;20047;-72
2023/01/09 11:35:30;;;;;;;2.83;0.40;;;9.10;99.90;;;;;;5076949;28;20020;-72
2023/01/09 11:38:15;;;;;;;1.88;0.60;;;9.00;99.90;;;;;;5105933;28;20031;-73
2023/01/09 11:40:50;;;;;;;1.63;0.80;;;8.90;99.90;;;;;;5084371;28;20153;-72
2023/01/09 11:43:31;;;;;;;3.20;0.80;;;8.80;99.90;;;;;;5114760;28;20117;-72
2023/01/09 11:45:59;;;;;;;3.30;0.90;;;8.70;99.90;;;;;;5115427;28;20153;-72
2023/01/09 11:48:29;;;;;;;2.63;0.88;;;8.70;99.90;;;;;;5114925;28;20035;-73
2023/01/09 11:50:58;;;;;;;7.25;1.15;;;8.60;99.90;;;;;;5114350;28;20028;-73
2023/01/09 11:53:25;;;;;;;5.72;0.70;;;8.70;99.90;;;;;;5113724;28;20024;-73
2023/01/09 11:56:00;;;;;;;2.17;0.55;;;8.80;99.90;;;;;;5114037;28;20019;-73
2023/01/09 11:58:32;;;;;;;4.22;0.80;;;8.80;99.90;;;;;;5115024;28;20366;-73
2023/01/09 12:01:24;;;;;;;;;;;9.00;99.90;;;;;;5109786;28;20469;-72
2023/01/09 12:04:04;;;;;;;4.45;0.80;;;9.00;99.90;;;;;;5103368;28;19907;-73
2023/01/09 12:07:10;;;;;;;6.18;0.68;;;8.90;99.90;;;;;;5097540;28;20030;-72
2023/01/09 12:09:56;;;;;;;2.58;0.93;;;8.80;99.90;;;;;;5096314;28;20461;-73
2023/01/09 12:12:48;;;;;;;1.92;0.43;;;8.80;99.90;;;;;;5114132;28;20174;-73
2023/01/09 12:15:23;;;;;;;4.38;0.60;;;9.00;99.90;;;;;;5106169;28;20020;-73
2023/01/09 12:18:10;;;;;;;3.55;0.52;;;9.20;99.90;;;;;;5108179;28;20051;-73
2023/01/09 12:20:57;;;;;;;3.47;0.63;;;9.30;99.90;;;;;;5082268;28;20567;-73
2023/01/09 12:23:30;;;;;;;4.05;0.50;;;9.30;99.90;;;;;;5104475;28;20120;-73
2023/01/09 12:25:55;;;;;;;3.10;1.13;;;9.20;99.90;;;;;;5109233;28;20027;-74
2023/01/09 12:28:21;;;;;;;2.47;0.63;;;9.10;99.90;;;;;;5096080;28;20624;-74
2023/01/09 12:31:05;;;;;;;2.47;0.70;;;9.00;99.90;;;;;;5109124;28;20040;-74
2023/01/09 12:33:50;;;;;;;0.70;0.30;;;8.90;99.90;;;;;;5096805;28;20055;-73
2023/01/09 12:36:35;;;;;;;2.38;0.63;;;8.80;99.90;;;;;;5112847;28;20030;-74
2023/01/09 12:39:38;;;;;;;4.78;0.70;;;8.80;99.90;;;;;;5108253;28;20019;-74
2023/01/09 12:42:26;;;;;;;4.20;0.55;;;9.00;99.90;;;;;;5109951;28;20027;-74
2023/01/09 12:45:22;;;;;;;3.17;0.73;;;9.20;99.90;;;;;;5112800;28;20034;-74
2023/01/09 12:47:49;;;;;;;6.28;0.70;;;9.10;99.90;;;;;;5114376;28;20038;-74
2023/01/09 12:50:30;;;;;;;4.18;0.60;;;9.00;99.90;;;;;;5112355;28;20392;-74
2023/01/09 12:53:17;;;;;;;4.80;0.70;;;9.00;99.90;;;;;;5099953;28;20026;-74
2023/01/09 12:55:49;;;;;;;4.30;0.90;;;9.20;99.90;;;;;;5102058;28;20036;-74
2023/01/09 12:58:24;;;;;;;2.22;0.60;;;9.60;99.90;;;;;;5113649;28;20031;-74
2023/01/09 13:00:53;;;;;;;2.47;0.60;;;9.80;99.90;;;;;;5113754;28;20024;-75
2023/01/09 13:03:57;;;;;;;6.78;1.42;;;9.60;99.90;;;;;;5095321;28;20031;-75
2023/01/09 13:06:24;;;;;;;3.45;0.80;;;9.40;99.90;;;;;;5113250;28;20035;-74
2023/01/09 13:09:14;;;;;;;2.45;0.50;;;9.30;99.90;;;;;;5108841;28;20031;-74
2023/01/09 13:11:50;;;;;;;2.35;0.32;;;9.20;99.90;;;;;;5077865;28;20040;-74
2023/01/09 13:14:23;;;;;;;2.50;0.50;;;9.00;99.90;;;;;;5095239;28;20027;-74
2023/01/09 13:16:52;;;;;;;1.25;0.40;;;8.90;99.90;;;;;;5109072;28;20043;-74
2023/01/09 13:19:28;;;;;;;2.35;0.68;;;8.80;99.90;;;;;;5094798;28;20093;-74
2023/01/09 13:21:56;;;;;;;1.58;0.30;;;8.80;99.90;;;;;;5095681;28;20448;-74
2023/01/09 13:24:41;;;;;;;3.22;0.57;;;8.70;99.90;;;;;;5094601;28;20049;-74
2023/01/09 13:27:15;;;;;;;4.10;0.77;;;8.70;99.90;;;;;;5112857;28;20092;-78
2023/01/09 13:29:45;;;;;;;3.47;0.75;;;8.60;99.90;;;;;;5095300;28;20035;-74
2023/01/09 13:32:26;;;;;;;2.95;0.90;;;8.60;99.90;;;;;;5081788;28;20085;-74